createdAt,value
2019-05-16T00:04:48.375Z,1.98
2019-05-16T00:09:51.734Z,1.40
2019-05-16T00:14:55.070Z,1.80
2019-05-16T00:19:58.904Z,3.67
2019-05-16T00:25:02.314Z,2.62
2019-05-16T00:30:05.649Z,3.85
2019-05-16T00:35:09.479Z,1.80
2019-05-16T00:40:12.897Z,1.42
2019-05-16T00:45:18.338Z,1.17
2019-05-16T00:50:21.304Z,1.37
2019-05-16T00:55:24.612Z,2.70
2019-05-16T01:00:45.332Z,1.10
2019-05-16T01:05:48.637Z,2.83
2019-05-16T01:10:51.929Z,2.05
2019-05-16T01:15:55.224Z,1.12
2019-05-16T01:20:58.738Z,0.80
2019-05-16T01:26:02.107Z,1.65
2019-05-16T01:31:05.458Z,1.95
2019-05-16T01:36:09.096Z,2.67
2019-05-16T01:41:12.441Z,2.25
2019-05-16T01:46:17.863Z,2.02
2019-05-16T01:51:20.773Z,1.75
2019-05-16T01:56:24.105Z,2.87
2019-05-16T02:01:28.879Z,2.33
2019-05-16T02:06:32.262Z,3.10
2019-05-16T02:11:35.617Z,2.05
2019-05-16T02:16:38.922Z,2.45
2019-05-16T02:21:42.229Z,3.90
2019-05-16T02:26:45.546Z,2.62
2019-05-16T02:31:51.364Z,1.50
2019-05-16T02:37:14.625Z,0.98
2019-05-16T02:42:01.102Z,1.62
2019-05-16T02:47:04.015Z,1.98
2019-05-16T02:52:07.356Z,4.33
2019-05-16T02:57:11.470Z,4.53
2019-05-16T03:02:14.931Z,6.45
2019-05-16T03:07:36.434Z,4.50
2019-05-16T03:12:23.662Z,8.95
2019-05-16T03:17:26.972Z,10.90
2019-05-16T03:22:31.530Z,11.00
2019-05-16T03:27:35.219Z,8.80
2019-05-16T03:32:43.889Z,10.50
2019-05-16T03:37:55.166Z,11.03
2019-05-16T03:42:51.673Z,14.68
2019-05-16T03:47:53.645Z,7.10
2019-05-16T03:52:56.972Z,12.43
2019-05-16T03:58:01.086Z,11.78
2019-05-16T04:03:04.930Z,11.55
2019-05-16T04:08:14.773Z,7.28
2019-05-16T04:13:13.328Z,11.25
2019-05-16T04:18:16.662Z,5.65
2019-05-16T04:23:20.554Z,7.22
2019-05-16T04:28:24.118Z,8.28
2019-05-16T04:33:30.596Z,12.82
2019-05-16T04:38:40.661Z,5.00
2019-05-16T04:43:37.559Z,14.30
2019-05-16T04:48:41.800Z,6.08
2019-05-16T04:53:45.352Z,7.08
2019-05-16T04:58:51.375Z,7.17
2019-05-16T05:04:06.268Z,6.28
2019-05-16T05:09:03.315Z,7.03
2019-05-16T05:14:03.832Z,10.00
2019-05-16T05:19:07.138Z,5.17
2019-05-16T05:24:11.065Z,6.37
2019-05-16T05:29:14.433Z,5.47
2019-05-16T05:34:19.761Z,7.30
2019-05-16T05:39:22.967Z,4.97
2019-05-16T05:44:26.383Z,5.37
2019-05-16T05:49:30.320Z,4.03
2019-05-16T05:54:33.683Z,5.35
2019-05-16T05:59:37.021Z,4.97
2019-05-16T06:04:40.330Z,5.70
2019-05-16T06:09:53.476Z,4.87
2019-05-16T06:14:50.451Z,5.65
2019-05-16T06:19:53.943Z,5.25
2019-05-16T06:24:57.263Z,4.42
2019-05-16T06:30:00.766Z,5.12
2019-05-16T06:35:05.755Z,5.17
2019-05-16T06:40:10.995Z,6.55
2019-05-16T06:45:14.533Z,7.47
2019-05-16T06:50:20.615Z,6.65
2019-05-16T06:55:22.868Z,5.55
2019-05-16T07:00:26.216Z,4.58
2019-05-16T07:05:30.003Z,5.83
2019-05-16T07:10:34.311Z,3.12
2019-05-16T07:15:37.603Z,4.87
2019-05-16T07:20:41.076Z,2.83
2019-05-16T07:25:44.396Z,5.35
2019-05-16T07:30:49.934Z,4.95
2019-05-16T07:35:52.739Z,4.58
2019-05-16T07:40:56.050Z,4.90
2019-05-16T07:46:00.482Z,3.87
2019-05-16T07:51:04.028Z,2.65
2019-05-16T07:56:07.335Z,3.35
2019-05-16T08:01:12.439Z,4.97
2019-05-16T08:06:15.835Z,3.85
2019-05-16T08:11:23.242Z,3.12
2019-05-16T08:16:24.261Z,4.50
2019-05-16T08:21:27.870Z,2.45
2019-05-16T08:26:38.239Z,2.17
2019-05-16T08:31:37.611Z,4.15
2019-05-16T08:36:41.216Z,2.47
2019-05-16T08:41:44.542Z,3.65
2019-05-16T08:46:54.799Z,3.70
2019-05-16T08:51:53.287Z,2.50
2019-05-16T08:56:56.815Z,3.30
2019-05-16T09:02:03.213Z,4.72
2019-05-16T09:07:05.176Z,7.25
2019-05-16T09:12:08.468Z,2.17
2019-05-16T09:17:11.794Z,3.33
2019-05-16T09:22:17.919Z,4.87
2019-05-16T09:27:20.977Z,5.22
2019-05-16T09:32:27.528Z,3.37
2019-05-16T09:37:29.526Z,3.42
2019-05-16T09:42:32.851Z,2.17
2019-05-16T09:47:39.011Z,2.50
2019-05-16T09:52:41.307Z,4.00
2019-05-16T09:57:46.811Z,1.92
2019-05-16T10:02:49.708Z,3.22
2019-05-16T10:07:53.032Z,2.35
2019-05-16T10:12:56.380Z,2.77
2019-05-16T10:17:59.708Z,3.72
2019-05-16T10:23:03.285Z,2.08
2019-05-16T10:28:06.639Z,1.82
2019-05-16T10:33:09.967Z,1.90
2019-05-16T10:38:13.309Z,2.92
2019-05-16T10:43:17.276Z,3.12
2019-05-16T10:48:20.765Z,2.65
2019-05-16T10:53:52.295Z,1.90
2019-05-16T10:58:37.243Z,2.67
2019-05-16T11:03:34.247Z,3.62
2019-05-16T11:08:39.665Z,2.33
2019-05-16T11:13:42.590Z,3.65
2019-05-16T11:18:45.924Z,6.15
2019-05-16T11:23:49.267Z,2.45
2019-05-16T11:28:52.598Z,1.70
2019-05-16T11:33:57.466Z,1.70
2019-05-16T11:39:01.968Z,1.62
2019-05-16T11:44:06.597Z,2.87
2019-05-16T11:49:10.157Z,2.27
2019-05-16T11:54:13.480Z,3.58
2019-05-16T11:59:16.823Z,3.33
2019-05-16T12:04:20.207Z,3.80
2019-05-16T12:09:23.544Z,1.85
2019-05-16T12:14:27.272Z,2.65
2019-05-16T12:19:34.353Z,1.65
2019-05-16T12:24:38.847Z,5.92
2019-05-16T12:29:40.753Z,5.65
2019-05-16T12:34:46.213Z,5.50
2019-05-16T12:39:49.140Z,5.60
2019-05-16T12:44:52.468Z,6.20
2019-05-16T12:49:56.674Z,2.20
2019-05-16T12:55:00.123Z,5.95
2019-05-16T13:00:03.886Z,3.05
2019-05-16T13:05:07.684Z,3.30
2019-05-16T13:10:12.663Z,3.33
2019-05-16T13:15:18.294Z,4.70
2019-05-16T13:20:20.996Z,2.35
2019-05-16T13:25:24.307Z,3.08
2019-05-16T13:30:27.706Z,2.15
2019-05-16T13:35:31.184Z,1.37
2019-05-16T13:40:34.518Z,1.82
2019-05-16T13:45:37.971Z,4.30
2019-05-16T13:50:41.334Z,2.08
2019-05-16T13:55:44.723Z,2.08
2019-05-16T14:00:48.223Z,2.42
2019-05-16T14:05:51.585Z,1.85
2019-05-16T14:11:00.726Z,1.35
2019-05-16T14:15:59.933Z,6.00
2019-05-16T14:21:03.294Z,2.35
2019-05-16T14:26:07.315Z,1.30
2019-05-16T14:31:10.718Z,4.85
2019-05-16T14:36:14.013Z,3.47
2019-05-16T14:41:17.655Z,2.80
2019-05-16T14:46:20.963Z,2.58
2019-05-16T14:51:27.268Z,3.72
2019-05-16T14:56:29.296Z,4.90
2019-05-16T15:01:32.598Z,5.60
2019-05-16T15:06:37.645Z,9.63
2019-05-16T15:11:41.116Z,6.42
2019-05-16T15:16:47.405Z,7.37
2019-05-16T15:21:49.450Z,3.12
2019-05-16T15:26:52.761Z,9.45
2019-05-16T15:31:57.389Z,4.37
2019-05-16T15:37:00.855Z,4.45
2019-05-16T15:42:04.345Z,7.60
2019-05-16T15:47:08.318Z,6.75
2019-05-16T15:52:11.748Z,5.37
2019-05-16T15:57:17.471Z,4.78
2019-05-16T16:02:20.075Z,4.37
2019-05-16T16:07:23.382Z,3.52
2019-05-16T16:12:26.759Z,7.75
2019-05-16T16:17:30.250Z,5.30
2019-05-16T16:22:33.986Z,7.67
2019-05-16T16:27:37.310Z,2.62
2019-05-16T16:32:40.770Z,4.65
2019-05-16T16:37:44.143Z,14.33
2019-05-16T16:42:47.635Z,13.98
2019-05-16T16:47:50.946Z,9.85
2019-05-16T16:52:56.415Z,16.95
2019-05-16T16:57:59.818Z,14.83
2019-05-16T17:03:07.179Z,4.78
2019-05-16T17:08:08.283Z,4.97
2019-05-16T17:13:11.598Z,8.93
2019-05-16T17:18:17.205Z,3.58
2019-05-16T17:23:20.515Z,5.45
2019-05-16T17:28:23.872Z,4.62
2019-05-16T17:33:28.499Z,8.55
2019-05-16T17:38:32.254Z,8.98
2019-05-16T17:43:36.289Z,6.50
2019-05-16T17:48:39.731Z,6.85
2019-05-16T17:53:43.182Z,8.45
2019-05-16T17:58:46.485Z,5.95
2019-05-16T18:03:49.862Z,2.72
2019-05-16T18:08:53.203Z,5.20
2019-05-16T18:13:57.053Z,4.25
2019-05-16T18:19:00.772Z,5.12
2019-05-16T18:24:04.165Z,7.62
2019-05-16T18:29:07.510Z,5.67
2019-05-16T18:34:11.012Z,3.87
2019-05-16T18:39:14.414Z,5.22
2019-05-16T18:44:17.801Z,5.95
2019-05-16T18:49:24.016Z,5.92
2019-05-16T18:54:26.724Z,6.33
2019-05-16T18:59:30.013Z,5.62
2019-05-16T19:04:33.392Z,7.20
2019-05-16T19:09:37.479Z,3.08
2019-05-16T19:14:40.877Z,3.33
2019-05-16T19:19:46.364Z,4.35
2019-05-16T19:24:49.786Z,5.47
2019-05-16T19:29:53.090Z,6.15
2019-05-16T19:34:57.391Z,2.70
2019-05-16T19:40:00.940Z,3.52
2019-05-16T19:45:06.163Z,4.35
2019-05-16T19:50:09.609Z,3.75
2019-05-16T19:55:12.911Z,4.80
2019-05-16T20:00:18.459Z,2.20
2019-05-16T20:05:21.764Z,2.55
2019-05-16T20:10:27.117Z,2.33
2019-05-16T20:15:30.161Z,5.47
2019-05-16T20:20:33.455Z,3.47
2019-05-16T20:25:36.839Z,4.90
2019-05-16T20:30:40.164Z,2.27
2019-05-16T20:35:43.460Z,2.95
2019-05-16T20:40:46.804Z,4.65
2019-05-16T20:45:50.091Z,2.10
2019-05-16T20:50:53.372Z,4.22
2019-05-16T20:55:57.315Z,3.98
2019-05-16T21:01:01.630Z,2.65
2019-05-16T21:06:08.472Z,2.67
2019-05-16T21:11:10.259Z,2.05
2019-05-16T21:16:13.583Z,2.22
2019-05-16T21:21:19.346Z,2.25
2019-05-16T21:26:21.924Z,4.15
2019-05-16T21:31:27.562Z,2.75
2019-05-16T21:36:30.266Z,2.92
2019-05-16T21:41:33.561Z,3.58
2019-05-16T21:46:36.887Z,3.22
2019-05-16T21:51:40.211Z,2.25
2019-05-16T21:56:43.550Z,2.20
2019-05-16T22:01:47.384Z,2.67
2019-05-16T22:06:50.774Z,2.37
2019-05-16T22:11:54.103Z,2.62
2019-05-16T22:16:57.458Z,2.85
2019-05-16T22:22:00.792Z,3.87
2019-05-16T22:27:06.709Z,4.05
2019-05-16T22:32:09.452Z,2.52
2019-05-16T22:37:12.745Z,3.37
2019-05-16T22:42:17.647Z,3.45
2019-05-16T22:47:21.189Z,2.77
2019-05-16T22:52:26.520Z,3.08
2019-05-16T22:57:29.649Z,2.80
2019-05-16T23:02:33.053Z,1.80
2019-05-16T23:07:36.825Z,2.47
2019-05-16T23:12:40.319Z,2.58
2019-05-16T23:17:43.618Z,2.72
2019-05-16T23:22:47.134Z,2.95
2019-05-16T23:27:50.399Z,1.85
2019-05-16T23:32:53.699Z,1.87
2019-05-16T23:37:57.079Z,1.98
2019-05-16T23:43:00.372Z,1.92
2019-05-16T23:48:03.700Z,2.08
2019-05-16T23:53:07.582Z,2.33
2019-05-16T23:58:11.023Z,3.08
